createdAt,value
2019-05-22T00:01:10.246Z,9.90
2019-05-22T00:03:47.359Z,10.25
2019-05-22T00:06:19.032Z,9.78
2019-05-22T00:08:50.028Z,10.38
2019-05-22T00:11:21.328Z,10.08
2019-05-22T00:13:51.523Z,10.45
2019-05-22T00:16:22.142Z,9.80
2019-05-22T00:18:52.536Z,10.70
2019-05-22T00:21:22.836Z,11.12
2019-05-22T00:23:52.471Z,11.28
2019-05-22T00:26:23.444Z,10.60
2019-05-22T00:28:54.170Z,11.05
2019-05-22T00:31:23.380Z,10.55
2019-05-22T00:33:52.519Z,10.72
2019-05-22T00:36:23.316Z,11.55
2019-05-22T00:38:52.556Z,11.18
2019-05-22T00:41:23.717Z,11.68
2019-05-22T00:43:53.379Z,11.57
2019-05-22T00:46:24.079Z,11.50
2019-05-22T00:48:54.183Z,11.48
2019-05-22T00:51:36.554Z,11.60
2019-05-22T00:54:23.538Z,11.43
2019-05-22T00:56:58.023Z,11.28
2019-05-22T00:59:29.505Z,11.80
2019-05-22T01:02:03.765Z,12.10
2019-05-22T01:04:35.344Z,11.12
2019-05-22T01:07:07.662Z,11.55
2019-05-22T01:09:42.247Z,12.07
2019-05-22T01:12:17.489Z,11.90
2019-05-22T01:14:46.928Z,12.18
2019-05-22T01:17:17.839Z,10.93
2019-05-22T01:19:48.615Z,11.83
2019-05-22T01:22:18.041Z,11.53
2019-05-22T01:24:50.842Z,11.45
2019-05-22T01:27:21.864Z,11.60
2019-05-22T01:29:53.952Z,11.12
2019-05-22T01:32:24.903Z,11.60
2019-05-22T01:34:54.344Z,11.33
2019-05-22T01:37:26.119Z,11.83
2019-05-22T01:40:03.739Z,11.63
2019-05-22T01:42:37.118Z,11.75
2019-05-22T01:45:09.437Z,12.15
2019-05-22T01:47:42.480Z,11.80
2019-05-22T01:50:16.220Z,11.38
2019-05-22T01:52:48.416Z,10.70
2019-05-22T01:55:19.214Z,10.95
2019-05-22T01:57:50.486Z,10.85
2019-05-22T02:00:20.534Z,11.12
2019-05-22T02:02:51.993Z,11.40
2019-05-22T02:05:22.871Z,11.90
2019-05-22T02:07:51.952Z,11.57
2019-05-22T02:10:30.175Z,11.20
2019-05-22T02:13:03.259Z,10.68
2019-05-22T02:15:34.108Z,10.78
2019-05-22T02:18:08.066Z,10.68
2019-05-22T02:20:39.003Z,10.58
2019-05-22T02:23:08.549Z,10.85
2019-05-22T02:25:38.130Z,10.38
2019-05-22T02:28:09.206Z,10.48
2019-05-22T02:30:40.216Z,11.57
2019-05-22T02:33:11.038Z,11.28
2019-05-22T02:35:40.776Z,11.00
2019-05-22T02:38:10.278Z,10.20
2019-05-22T02:40:41.876Z,10.70
2019-05-22T02:43:11.804Z,10.35
2019-05-22T02:45:42.177Z,10.30
2019-05-22T02:48:12.027Z,11.03
2019-05-22T02:50:42.077Z,11.08
2019-05-22T02:53:13.091Z,10.58
2019-05-22T02:55:42.443Z,10.78
2019-05-22T02:58:13.159Z,10.68
2019-05-22T03:00:48.468Z,10.68
2019-05-22T03:03:17.895Z,10.30
2019-05-22T03:05:48.367Z,11.15
2019-05-22T03:08:18.038Z,11.10
2019-05-22T03:10:49.223Z,10.85
2019-05-22T03:13:21.536Z,10.78
2019-05-22T03:15:50.748Z,10.50
2019-05-22T03:18:21.456Z,10.85
2019-05-22T03:20:50.695Z,10.85
2019-05-22T03:23:37.925Z,10.63
2019-05-22T03:26:09.193Z,10.68
2019-05-22T03:28:38.649Z,11.30
2019-05-22T03:31:09.388Z,10.03
2019-05-22T03:33:39.122Z,10.48
2019-05-22T03:36:15.018Z,10.25
2019-05-22T03:38:45.204Z,10.30
2019-05-22T03:41:15.507Z,10.10
2019-05-22T03:43:48.469Z,10.20
2019-05-22T03:46:27.436Z,9.88
2019-05-22T03:48:58.367Z,9.40
2019-05-22T03:51:27.599Z,10.15
2019-05-22T03:53:57.231Z,9.38
2019-05-22T03:59:08.803Z,9.65
2019-05-22T04:01:38.226Z,9.73
2019-05-22T04:04:07.463Z,10.00
2019-05-22T04:06:39.133Z,11.12
2019-05-22T04:09:20.343Z,9.23
2019-05-22T04:11:50.025Z,9.73
2019-05-22T04:14:21.292Z,9.33
2019-05-22T04:16:51.794Z,9.45
2019-05-22T04:19:21.415Z,9.65
2019-05-22T04:21:50.913Z,9.15
2019-05-22T04:24:20.461Z,9.05
2019-05-22T04:26:50.339Z,10.10
2019-05-22T04:29:19.551Z,8.98
2019-05-22T04:31:58.727Z,9.83
2019-05-22T04:34:29.000Z,9.73
2019-05-22T04:36:58.233Z,9.40
2019-05-22T04:39:29.612Z,9.08
2019-05-22T04:42:01.042Z,8.88
2019-05-22T04:44:30.293Z,8.95
2019-05-22T04:47:00.450Z,9.78
2019-05-22T04:49:29.552Z,9.30
2019-05-22T04:51:58.924Z,9.80
2019-05-22T04:54:28.177Z,9.20
2019-05-22T04:56:57.775Z,9.30
2019-05-22T04:59:27.108Z,8.83
2019-05-22T05:01:56.635Z,9.68
2019-05-22T05:04:26.880Z,9.00
2019-05-22T05:07:06.960Z,8.80
2019-05-22T05:09:36.257Z,9.13
2019-05-22T05:12:06.049Z,8.80
2019-05-22T05:14:36.463Z,8.63
2019-05-22T05:17:07.170Z,8.63
2019-05-22T05:19:36.404Z,8.70
2019-05-22T05:22:07.443Z,8.70
2019-05-22T05:24:36.508Z,8.48
2019-05-22T05:27:07.202Z,8.43
2019-05-22T05:29:36.739Z,8.18
2019-05-22T05:32:08.263Z,8.63
2019-05-22T05:34:40.685Z,8.53
2019-05-22T05:37:13.483Z,8.28
2019-05-22T05:39:48.445Z,8.78
2019-05-22T05:42:17.987Z,8.20
2019-05-22T05:44:47.126Z,8.70
2019-05-22T05:47:17.962Z,8.73
2019-05-22T05:49:47.392Z,8.40
2019-05-22T05:52:16.927Z,7.83
2019-05-22T05:54:47.876Z,8.73
2019-05-22T05:57:38.496Z,8.23
2019-05-22T06:00:11.748Z,7.95
2019-05-22T06:02:55.614Z,7.70
2019-05-22T06:05:12.279Z,7.62
2019-05-22T06:07:42.195Z,7.60
2019-05-22T06:10:29.412Z,7.75
2019-05-22T06:13:00.463Z,8.68
2019-05-22T06:15:47.006Z,7.90
2019-05-22T06:18:34.349Z,7.33
2019-05-22T06:21:06.152Z,7.78
2019-05-22T06:23:42.175Z,7.47
2019-05-22T06:26:23.111Z,7.35
2019-05-22T06:28:54.142Z,6.90
2019-05-22T06:31:42.729Z,7.17
2019-05-22T06:34:13.181Z,7.22
2019-05-22T06:36:42.937Z,7.15
2019-05-22T06:39:13.723Z,7.15
2019-05-22T06:41:45.988Z,7.62
2019-05-22T06:44:31.175Z,7.37
2019-05-22T06:47:00.989Z,7.25
2019-05-22T06:49:35.779Z,7.15
2019-05-22T06:52:07.300Z,7.35
2019-05-22T06:54:37.268Z,7.08
2019-05-22T06:57:09.398Z,7.33
2019-05-22T06:59:39.925Z,7.75
2019-05-22T07:02:10.237Z,6.47
2019-05-22T07:04:39.632Z,7.42
2019-05-22T07:07:11.860Z,6.78
2019-05-22T07:09:41.013Z,6.97
2019-05-22T07:12:10.721Z,7.03
2019-05-22T07:14:45.559Z,7.37
2019-05-22T07:17:17.217Z,6.90
2019-05-22T07:19:47.095Z,7.03
2019-05-22T07:22:16.510Z,7.20
2019-05-22T07:24:46.775Z,7.20
2019-05-22T07:27:24.963Z,7.45
2019-05-22T07:29:54.463Z,6.50
2019-05-22T07:32:23.722Z,7.08
2019-05-22T07:34:52.876Z,7.25
2019-05-22T07:37:22.950Z,6.45
2019-05-22T07:39:52.150Z,6.70
2019-05-22T07:42:21.377Z,6.80
2019-05-22T07:44:50.437Z,6.95
2019-05-22T07:47:23.322Z,6.65
2019-05-22T07:49:52.443Z,7.10
2019-05-22T07:52:21.947Z,6.78
2019-05-22T07:54:52.715Z,7.00
2019-05-22T07:57:24.592Z,6.67
2019-05-22T07:59:54.779Z,6.60
2019-05-22T08:02:27.822Z,6.85
2019-05-22T08:05:04.285Z,7.17
2019-05-22T08:07:37.431Z,6.60
2019-05-22T08:10:09.930Z,7.03
2019-05-22T08:12:40.217Z,7.10
2019-05-22T08:15:11.570Z,7.33
2019-05-22T08:17:43.005Z,8.18
2019-05-22T08:20:14.451Z,8.55
2019-05-22T08:22:47.803Z,8.80
2019-05-22T08:25:17.472Z,9.10
2019-05-22T08:27:48.428Z,8.53
2019-05-22T08:30:18.804Z,8.13
2019-05-22T08:32:48.389Z,9.35
2019-05-22T08:35:18.166Z,8.95
2019-05-22T08:37:49.782Z,9.38
2019-05-22T08:40:29.132Z,9.68
2019-05-22T08:43:05.403Z,10.03
2019-05-22T08:45:35.701Z,9.43
2019-05-22T08:48:05.764Z,9.83
2019-05-22T08:50:37.022Z,9.40
2019-05-22T08:53:08.378Z,9.40
2019-05-22T08:55:40.725Z,8.98
2019-05-22T08:58:10.145Z,9.20
2019-05-22T09:00:40.933Z,9.08
2019-05-22T09:03:11.775Z,8.85
2019-05-22T09:05:41.484Z,10.32
2019-05-22T09:08:10.705Z,9.38
2019-05-22T09:10:39.836Z,9.60
2019-05-22T09:13:10.438Z,10.10
2019-05-22T09:15:42.020Z,9.00
2019-05-22T09:18:12.264Z,9.48
2019-05-22T09:20:49.300Z,9.03
2019-05-22T09:23:13.053Z,9.28
2019-05-22T09:25:42.261Z,9.08
2019-05-22T09:28:12.124Z,9.48
2019-05-22T09:30:42.259Z,8.95
2019-05-22T09:33:12.627Z,9.50
2019-05-22T09:35:42.076Z,9.58
2019-05-22T09:38:15.380Z,8.90
2019-05-22T09:40:45.774Z,9.33
2019-05-22T09:43:15.172Z,9.88
2019-05-22T09:45:44.984Z,9.43
2019-05-22T09:48:14.728Z,9.23
2019-05-22T09:50:46.499Z,9.60
2019-05-22T09:53:24.349Z,10.35
2019-05-22T09:55:53.948Z,9.20
2019-05-22T09:58:23.114Z,9.80
2019-05-22T10:00:55.883Z,9.35
2019-05-22T10:03:25.315Z,10.35
2019-05-22T10:05:54.934Z,9.50
2019-05-22T10:08:24.408Z,9.90
2019-05-22T10:10:53.531Z,9.03
2019-05-22T10:13:24.473Z,9.60
2019-05-22T10:15:53.657Z,8.80
2019-05-22T10:18:22.960Z,8.60
2019-05-22T10:20:52.239Z,9.43
2019-05-22T10:23:22.383Z,8.55
2019-05-22T10:25:51.852Z,9.03
2019-05-22T10:28:21.642Z,8.20
2019-05-22T10:30:51.413Z,8.13
2019-05-22T10:33:20.966Z,8.13
2019-05-22T10:35:50.512Z,8.75
2019-05-22T10:38:20.210Z,8.78
2019-05-22T10:40:50.385Z,8.63
2019-05-22T10:43:19.760Z,8.65
2019-05-22T10:45:48.899Z,9.15
2019-05-22T10:48:19.305Z,9.08
2019-05-22T10:50:50.012Z,9.35
2019-05-22T10:53:32.814Z,9.85
2019-05-22T10:55:52.702Z,9.18
2019-05-22T10:58:23.199Z,10.72
2019-05-22T11:00:52.700Z,8.80
2019-05-22T11:03:22.182Z,9.03
2019-05-22T11:06:05.638Z,9.13
2019-05-22T11:08:24.383Z,8.50
2019-05-22T11:10:53.694Z,7.95
2019-05-22T11:13:23.183Z,7.83
2019-05-22T11:15:52.535Z,8.08
2019-05-22T11:18:21.848Z,8.15
2019-05-22T11:20:51.070Z,7.28
2019-05-22T11:23:21.132Z,6.92
2019-05-22T11:25:50.435Z,7.15
2019-05-22T11:28:20.200Z,6.95
2019-05-22T11:30:49.900Z,7.30
2019-05-22T11:33:19.312Z,6.90
2019-05-22T11:35:49.290Z,6.97
2019-05-22T11:38:18.458Z,6.33
2019-05-22T11:40:50.606Z,7.08
2019-05-22T11:43:19.667Z,6.42
2019-05-22T11:45:49.129Z,6.20
2019-05-22T11:48:18.553Z,6.20
2019-05-22T11:50:48.964Z,6.47
2019-05-22T11:53:18.307Z,6.25
2019-05-22T11:55:47.660Z,6.00
2019-05-22T11:58:17.120Z,5.70
2019-05-22T12:00:46.458Z,5.75
2019-05-22T12:03:15.601Z,6.10
2019-05-22T12:05:45.838Z,6.22
2019-05-22T12:08:15.152Z,5.95
2019-05-22T12:10:44.681Z,5.95
2019-05-22T12:13:14.563Z,5.87
2019-05-22T12:15:44.051Z,5.50
2019-05-22T12:18:13.213Z,5.60
2019-05-22T12:20:44.347Z,6.22
2019-05-22T12:23:13.419Z,6.78
2019-05-22T12:25:42.608Z,5.90
2019-05-22T12:28:11.637Z,6.72
2019-05-22T12:30:40.846Z,6.08
2019-05-22T12:33:13.858Z,6.33
2019-05-22T12:35:42.274Z,5.90
2019-05-22T12:38:13.762Z,5.72
2019-05-22T12:40:43.661Z,6.33
2019-05-22T12:43:12.867Z,6.10
2019-05-22T12:45:42.113Z,6.50
2019-05-22T12:48:11.614Z,6.10
2019-05-22T12:50:40.755Z,6.50
2019-05-22T12:53:12.599Z,6.33
2019-05-22T12:55:42.207Z,6.78
2019-05-22T12:58:11.338Z,6.70
2019-05-22T13:00:40.730Z,6.42
2019-05-22T13:03:11.770Z,6.85
2019-05-22T13:05:41.236Z,6.87
2019-05-22T13:08:13.412Z,7.53
2019-05-22T13:10:43.056Z,7.80
2019-05-22T13:13:12.914Z,7.92
2019-05-22T13:15:43.279Z,7.50
2019-05-22T13:18:15.763Z,8.30
2019-05-22T13:20:47.303Z,8.53
2019-05-22T13:23:16.974Z,8.55
2019-05-22T13:25:46.306Z,8.55
2019-05-22T13:28:18.373Z,8.40
2019-05-22T13:30:51.145Z,8.55
2019-05-22T13:33:24.875Z,8.30
2019-05-22T13:35:54.794Z,7.55
2019-05-22T13:38:24.385Z,8.23
2019-05-22T13:40:54.697Z,8.73
2019-05-22T13:43:24.495Z,8.55
2019-05-22T13:45:54.392Z,8.63
2019-05-22T13:48:23.868Z,7.95
2019-05-22T13:50:53.399Z,9.10
2019-05-22T13:53:22.897Z,8.03
2019-05-22T13:55:54.510Z,8.38
2019-05-22T13:58:25.220Z,7.90
2019-05-22T14:00:54.351Z,8.28
2019-05-22T14:03:24.103Z,8.35
2019-05-22T14:05:54.638Z,9.33
2019-05-22T14:08:24.271Z,8.98
2019-05-22T14:10:54.134Z,8.83
2019-05-22T14:13:25.612Z,9.75
2019-05-22T14:15:56.862Z,9.80
2019-05-22T14:18:25.871Z,10.00
2019-05-22T14:20:55.270Z,10.30
2019-05-22T14:23:24.879Z,10.05
2019-05-22T14:25:54.398Z,10.03
2019-05-22T14:28:25.264Z,9.58
2019-05-22T14:30:54.573Z,9.80
2019-05-22T14:33:27.938Z,9.10
2019-05-22T14:35:57.178Z,9.10
2019-05-22T14:38:26.844Z,9.30
2019-05-22T14:40:57.193Z,10.65
2019-05-22T14:43:26.876Z,12.73
2019-05-22T14:45:56.293Z,13.78
2019-05-22T14:48:25.711Z,14.33
2019-05-22T14:50:54.844Z,13.75
2019-05-22T14:53:24.184Z,13.75
2019-05-22T14:55:53.887Z,14.23
2019-05-22T14:58:23.986Z,14.87
2019-05-22T15:00:53.892Z,14.75
2019-05-22T15:03:23.303Z,13.48
2019-05-22T15:05:52.616Z,14.23
2019-05-22T15:08:21.827Z,14.98
2019-05-22T15:10:51.371Z,14.13
2019-05-22T15:13:20.954Z,13.83
2019-05-22T15:15:50.255Z,16.97
2019-05-22T15:18:19.366Z,17.92
2019-05-22T15:21:06.132Z,15.38
2019-05-22T15:23:37.344Z,13.55
2019-05-22T15:26:06.780Z,14.23
2019-05-22T15:28:36.481Z,13.55
2019-05-22T15:31:06.267Z,12.82
2019-05-22T15:33:36.086Z,11.38
2019-05-22T15:36:08.085Z,11.88
2019-05-22T15:38:40.531Z,12.45
2019-05-22T15:41:11.453Z,12.23
2019-05-22T15:43:43.259Z,12.50
2019-05-22T15:46:14.803Z,11.93
2019-05-22T15:48:45.354Z,12.23
2019-05-22T15:51:16.638Z,11.75
2019-05-22T15:53:46.964Z,11.40
2019-05-22T15:56:16.396Z,11.03
2019-05-22T15:58:48.874Z,11.73
2019-05-22T16:01:21.775Z,10.65
2019-05-22T16:03:51.876Z,11.12
2019-05-22T16:06:23.516Z,11.63
2019-05-22T16:08:53.862Z,10.58
2019-05-22T16:11:26.086Z,10.00
2019-05-22T16:13:56.853Z,10.70
2019-05-22T16:16:26.950Z,9.85
2019-05-22T16:18:59.972Z,9.10
2019-05-22T16:21:29.809Z,9.25
2019-05-22T16:23:59.605Z,9.05
2019-05-22T16:26:29.902Z,9.40
2019-05-22T16:29:01.586Z,8.80
2019-05-22T16:31:33.032Z,9.18
2019-05-22T16:34:02.588Z,9.05
2019-05-22T16:36:33.235Z,9.53
2019-05-22T16:39:04.299Z,8.60
2019-05-22T16:41:33.994Z,8.60
2019-05-22T16:44:03.986Z,9.08
2019-05-22T16:46:33.992Z,8.20
2019-05-22T16:49:03.826Z,8.30
2019-05-22T16:51:33.146Z,9.05
2019-05-22T16:54:06.219Z,8.45
2019-05-22T16:56:35.896Z,8.40
2019-05-22T16:59:07.466Z,8.40
2019-05-22T17:01:56.860Z,8.25
2019-05-22T17:04:08.307Z,8.95
2019-05-22T17:06:38.721Z,8.18
2019-05-22T17:09:11.345Z,8.93
2019-05-22T17:11:41.497Z,8.45
2019-05-22T17:14:11.936Z,8.20
2019-05-22T17:16:41.301Z,7.53
2019-05-22T17:19:25.759Z,8.53
2019-05-22T17:21:43.007Z,8.68
2019-05-22T17:24:14.686Z,8.18
2019-05-22T17:26:44.699Z,9.28
2019-05-22T17:29:14.913Z,8.70
2019-05-22T17:31:44.767Z,8.53
2019-05-22T17:34:33.486Z,9.15
2019-05-22T17:37:06.963Z,9.03
2019-05-22T17:39:38.228Z,8.85
2019-05-22T17:42:10.634Z,8.70
2019-05-22T17:44:42.296Z,8.30
2019-05-22T17:47:12.486Z,8.23
2019-05-22T17:49:42.697Z,8.63
2019-05-22T17:52:12.716Z,9.50
2019-05-22T17:54:42.112Z,8.20
2019-05-22T17:57:11.612Z,8.65
2019-05-22T17:59:40.916Z,8.90
2019-05-22T18:02:11.796Z,9.18
2019-05-22T18:04:41.029Z,8.68
2019-05-22T18:07:10.205Z,8.55
2019-05-22T18:09:39.477Z,7.95
2019-05-22T18:12:08.755Z,8.28
2019-05-22T18:14:38.047Z,8.58
2019-05-22T18:17:07.948Z,8.30
2019-05-22T18:19:37.177Z,9.08
2019-05-22T18:22:08.155Z,9.28
2019-05-22T18:24:37.459Z,8.48
2019-05-22T18:27:06.638Z,8.60
2019-05-22T18:29:35.936Z,8.73
2019-05-22T18:32:06.732Z,8.20
2019-05-22T18:34:35.882Z,8.63
2019-05-22T18:37:05.185Z,9.45
2019-05-22T18:39:35.699Z,9.58
2019-05-22T18:42:05.847Z,9.45
2019-05-22T18:44:35.062Z,9.15
2019-05-22T18:47:04.879Z,10.10
2019-05-22T18:49:36.658Z,9.48
2019-05-22T18:52:06.083Z,9.63
2019-05-22T18:54:35.432Z,8.90
2019-05-22T18:57:04.852Z,9.78
2019-05-22T18:59:34.237Z,9.58
2019-05-22T19:02:04.545Z,9.03
2019-05-22T19:04:34.038Z,9.20
2019-05-22T19:07:04.033Z,9.78
2019-05-22T19:09:33.431Z,9.50
2019-05-22T19:12:03.085Z,10.03
2019-05-22T19:14:32.535Z,10.20
2019-05-22T19:17:01.909Z,10.05
2019-05-22T19:19:31.148Z,10.32
2019-05-22T19:22:00.687Z,10.05
2019-05-22T19:24:29.810Z,10.95
2019-05-22T19:26:58.977Z,10.63
2019-05-22T19:29:28.217Z,11.00
2019-05-22T19:31:57.352Z,11.12
2019-05-22T19:34:26.427Z,10.53
2019-05-22T19:36:55.719Z,11.95
2019-05-22T19:39:25.317Z,11.33
2019-05-22T19:42:03.401Z,11.78
2019-05-22T19:44:25.152Z,12.35
2019-05-22T19:46:54.391Z,12.43
2019-05-22T19:49:23.977Z,12.23
2019-05-22T19:51:55.189Z,12.82
2019-05-22T19:54:24.349Z,11.35
2019-05-22T19:56:53.563Z,12.65
2019-05-22T19:59:23.623Z,13.03
2019-05-22T20:01:53.181Z,12.18
2019-05-22T20:04:22.788Z,12.05
2019-05-22T20:06:52.183Z,12.37
2019-05-22T20:09:21.808Z,12.43
2019-05-22T20:11:51.088Z,12.40
2019-05-22T20:14:20.282Z,12.65
2019-05-22T20:16:49.512Z,12.20
2019-05-22T20:19:18.910Z,12.43
2019-05-22T20:21:48.337Z,11.53
2019-05-22T20:24:17.501Z,12.50
2019-05-22T20:26:46.583Z,12.18
2019-05-22T20:29:16.294Z,12.00
2019-05-22T20:31:45.511Z,12.30
2019-05-22T20:34:15.323Z,11.50
2019-05-22T20:36:44.975Z,12.15
2019-05-22T20:39:15.951Z,11.53
2019-05-22T20:41:45.195Z,11.45
2019-05-22T20:44:15.667Z,12.88
2019-05-22T20:46:46.217Z,12.68
2019-05-22T20:49:15.745Z,11.75
2019-05-22T20:51:46.015Z,11.97
2019-05-22T20:54:16.996Z,12.13
2019-05-22T20:56:47.998Z,12.47
2019-05-22T20:59:17.237Z,12.78
2019-05-22T21:01:46.974Z,13.20
2019-05-22T21:04:19.746Z,14.10
2019-05-22T21:06:54.719Z,14.00
2019-05-22T21:09:24.750Z,13.20
2019-05-22T21:11:54.417Z,14.33
2019-05-22T21:14:23.964Z,15.38
2019-05-22T21:16:53.203Z,16.87
2019-05-22T21:19:24.004Z,16.27
2019-05-22T21:21:54.024Z,16.35
2019-05-22T21:24:23.407Z,15.95
2019-05-22T21:26:53.021Z,16.65
2019-05-22T21:29:22.963Z,17.42
2019-05-22T21:31:52.502Z,18.40
2019-05-22T21:34:22.137Z,18.42
2019-05-22T21:36:51.537Z,21.10
2019-05-22T21:39:22.145Z,21.95
2019-05-22T21:41:51.300Z,22.45
2019-05-22T21:44:20.431Z,23.27
2019-05-22T21:46:50.649Z,22.37
2019-05-22T21:49:20.054Z,22.82
2019-05-22T21:51:49.352Z,22.50
2019-05-22T21:54:19.597Z,22.85
2019-05-22T21:56:49.835Z,23.00
2019-05-22T21:59:19.444Z,22.90
2019-05-22T22:01:50.243Z,23.62
2019-05-22T22:04:21.140Z,23.90
2019-05-22T22:06:52.736Z,23.27
2019-05-22T22:09:22.415Z,21.77
2019-05-22T22:11:52.837Z,23.02
2019-05-22T22:14:24.066Z,22.50
2019-05-22T22:16:53.617Z,23.70
2019-05-22T22:19:26.126Z,22.93
2019-05-22T22:21:56.142Z,22.30
2019-05-22T22:24:26.353Z,22.87
2019-05-22T22:26:56.866Z,23.12
2019-05-22T22:29:26.367Z,23.85
2019-05-22T22:31:57.479Z,23.57
2019-05-22T22:34:29.901Z,23.38
2019-05-22T22:36:59.457Z,23.95
2019-05-22T22:39:30.597Z,23.35
2019-05-22T22:42:00.626Z,23.77
2019-05-22T22:44:30.880Z,22.20
2019-05-22T22:47:03.419Z,21.75
2019-05-22T22:49:32.851Z,21.87
2019-05-22T22:52:02.380Z,21.02
2019-05-22T22:54:31.645Z,20.70
2019-05-22T22:57:00.881Z,20.68
2019-05-22T22:59:30.422Z,20.45
2019-05-22T23:02:01.232Z,18.65
2019-05-22T23:04:30.834Z,19.45
2019-05-22T23:07:03.143Z,18.50
2019-05-22T23:09:33.417Z,17.50
2019-05-22T23:12:04.340Z,17.20
2019-05-22T23:14:33.823Z,16.77
2019-05-22T23:17:03.763Z,17.57
2019-05-22T23:19:32.122Z,16.82
2019-05-22T23:22:01.463Z,16.05
2019-05-22T23:24:31.028Z,16.07
2019-05-22T23:27:00.986Z,16.70
2019-05-22T23:29:30.827Z,15.83
2019-05-22T23:32:00.741Z,17.15
2019-05-22T23:34:30.719Z,16.45
2019-05-22T23:37:00.735Z,16.30
2019-05-22T23:39:32.212Z,17.23
2019-05-22T23:42:07.174Z,16.40
2019-05-22T23:44:38.319Z,16.80
2019-05-22T23:47:08.063Z,17.77
2019-05-22T23:49:39.708Z,16.70
2019-05-22T23:52:10.304Z,15.10
2019-05-22T23:54:40.090Z,16.27
2019-05-22T23:57:10.861Z,15.88
2019-05-22T23:59:42.463Z,14.85
